Latest Weather Observations for Weipa

IDQ60801

Issued at 8:32 am EST Tuesday 23 April 2024 (issued every 10 minutes, with the page automatically refreshed every 10 minutes)

About weather observations | Map of weather stations | Latest weather observations for QLD | Other Formats
Station Details ID: 027045 Name: WEIPA AERO Lat: -12.68 Lon: 141.92 Height: 17.96 m
Data from the previous 72 hours. | See also: Recent months at Weipa
Date/Time
EST
Temp
°C
App
Temp
°C
Dew
Point
°C
Rel
Hum
%
Delta-T
°C
Wind Press
QNH
hPa
Press
MSL
hPa
Rain since
9am
mm
Dir  Spd
km/h
Gust
km/h
Spd
kts
Gust
kts
23/08:30am 26.4 28.6 23.3 83 2.1 ESE 17 22 9 12 1011.5 1011.4 0.2
23/08:00am 26.0 28.4 22.9 83 2.1 E 15 20 8 11 1011.2 1011.1 0.2
23/07:30am 25.5 28.4 23.2 87 1.6 E 13 19 7 10 1011.0 1010.9 0.2
23/07:00am 25.3 28.1 23.0 87 1.6 ESE 13 15 7 8 1010.8 1010.7 0.2
23/06:30am 25.2 27.9 22.9 87 1.6 ESE 13 19 7 10 1010.3 1010.2 0.2
23/06:00am 25.1 27.9 23.0 88 1.4 E 13 17 7 9 1009.9 1009.8 0.2
23/05:30am 25.0 27.9 23.1 89 1.3 ESE 13 15 7 8 1009.7 1009.6 0.2
23/05:00am 25.0 27.9 23.1 89 1.3 ESE 13 17 7 9 1009.3 1009.2 0.2
23/04:30am 25.0 27.5 23.1 89 1.3 ESE 15 19 8 10 1009.3 1009.2 0.2
23/04:00am 25.1 28.1 23.3 90 1.2 ESE 13 17 7 9 1009.3 1009.2 0.2
23/03:30am 25.3 27.5 23.2 88 1.4 ESE 17 22 9 12 1009.4 1009.3 0.2
23/03:00am 25.3 28.0 23.4 89 1.3 ESE 15 20 8 11 1009.5 1009.4 0.2
23/02:30am 25.3 28.0 23.4 89 1.3 ESE 15 17 8 9 1009.7 1009.6 0.2
23/02:00am 25.4 28.5 23.5 89 1.3 ESE 13 17 7 9 1009.9 1009.8 0.2
23/01:30am 25.5 28.6 23.6 89 1.3 ESE 13 17 7 9 1010.3 1010.2 0.2
23/01:00am 25.6 28.4 23.7 89 1.3 ESE 15 19 8 10 1010.6 1010.5 0.2
23/12:30am 25.7 28.9 23.7 89 1.4 E 13 19 7 10 1011.2 1011.1 0.2
23/12:00am 25.8 29.1 23.8 89 1.4 ESE 13 17 7 9 1011.7 1011.6 0.2
 
Date/Time
EST
Temp
°C
App
Temp
°C
Dew
Point
°C
Rel
Hum
%
Delta-T
°C
Wind Press
QNH
hPa
Press
MSL
hPa
Rain since
9am
mm
Dir  Spd
km/h
Gust
km/h
Spd
kts
Gust
kts
22/11:30pm 25.9 29.2 23.9 89 1.4 ESE 13 15 7 8 1011.8 1011.7 0.2
22/11:00pm 25.9 29.2 23.8 88 1.4 E 13 17 7 9 1011.7 1011.6 0.2
22/10:30pm 26.0 29.3 23.9 88 1.4 E 13 20 7 11 1011.5 1011.4 0.2
22/10:00pm 26.1 29.0 23.8 87 1.6 ESE 15 20 8 11 1011.2 1011.1 0.2
22/09:30pm 26.4 29.3 23.9 86 1.7 ESE 15 20 8 11 1011.6 1011.5 0.2
22/09:00pm 26.7 29.1 23.6 83 2.1 E 17 24 9 13 1011.1 1011.0 0.2
22/08:30pm 26.9 28.7 23.6 82 2.3 E 20 24 11 13 1010.9 1010.8 0.2
22/08:00pm 27.4 28.7 23.4 79 2.7 E 22 32 12 17 1010.6 1010.5 0.2
22/07:44pm 27.8 28.0 23.4 77 3.0 E 28 43 15 23 1010.4 1010.3 0.2
22/07:30pm 27.8 30.0 24.0 80 2.6 E 19 24 10 13 1010.1 1010.0 0.2
22/07:00pm 28.3 29.9 23.9 77 3.0 E 22 30 12 16 1009.5 1009.4 0.2
22/06:30pm 28.8 31.3 24.4 77 3.1 ESE 19 24 10 13 1009.3 1009.2 0.2
22/06:00pm 29.0 32.6 25.0 79 2.8 ESE 15 22 8 12 1008.9 1008.8 0.2
22/05:30pm 29.4 32.9 24.9 77 3.2 SE 15 20 8 11 1008.5 1008.4 0.2
22/05:00pm 30.6 33.8 25.0 72 3.9 E 17 22 9 12 1008.1 1008.0 0.2
22/04:30pm 31.4 34.4 25.5 71 4.2 E 20 26 11 14 1007.9 1007.8 0.2
22/04:00pm 30.7 33.5 25.3 73 3.8 ESE 20 28 11 15 1007.7 1007.6 0.2
22/03:30pm 31.1 32.0 24.0 66 4.9 E 26 37 14 20 1007.6 1007.5 0.2
22/03:00pm 31.5 35.0 25.4 70 4.3 E 17 24 9 13 1007.6 1007.5 0.2
22/02:30pm 30.4 34.1 25.7 76 3.3 NE 17 24 9 13 1007.8 1007.7 0.2
22/02:00pm 31.7 35.4 25.8 71 4.2 ESE 17 22 9 12 1008.2 1008.1 0.2
22/01:30pm 31.5 34.4 25.1 69 4.5 ESE 19 26 10 14 1008.5 1008.4 0.2
22/01:00pm 31.3 34.4 25.4 71 4.2 E 19 26 10 14 1009.2 1009.1 0.2
22/12:30pm 31.1 33.9 25.2 71 4.2 E 20 28 11 15 1009.6 1009.5 0.2
22/12:00pm 30.7 32.2 24.4 69 4.4 E 24 33 13 18 1009.8 1009.7 0.2
22/11:30am 30.1 32.1 25.2 75 3.5 ESE 24 33 13 18 1009.9 1009.8 0.2
22/11:00am 30.3 32.6 25.6 76 3.3 E 24 33 13 18 1010.4 1010.3 0.2
22/10:30am 29.1 31.8 25.1 79 2.8 ESE 20 26 11 14 1010.7 1010.6 0.2
22/10:00am 29.0 32.7 25.8 83 2.3 E 17 22 9 12 1010.9 1010.8 0.2
22/09:30am 28.0 30.4 24.6 82 2.4 E 20 28 11 15 1011.0 1010.9 0.0
22/09:00am 27.6 30.6 24.6 84 2.1 ESE 17 22 9 12 1011.0 1010.9 24.2
22/08:30am 27.1 31.0 24.9 88 1.5 ESE 13 17 7 9 1010.8 1010.7 24.2
22/08:00am 27.0 31.2 25.4 91 1.1 ESE 13 19 7 10 1010.5 1010.4 24.2
22/07:30am 25.9 30.0 24.5 92 1.0 ESE 11 13 6 7 1010.2 1010.1 24.2
22/07:00am 24.9 28.8 24.2 96 0.5 E 11 13 6 7 1010.0 1009.9 24.2
22/06:30am 24.7 29.3 24.2 97 0.3 ESE 7 9 4 5 1010.0 1009.9 24.2
22/06:00am 24.8 29.7 24.3 97 0.3 SE 6 7 3 4 1009.7 1009.6 24.2
22/05:30am 24.9 29.7 24.2 96 0.5 SE 6 7 3 4 1009.5 1009.4 24.2
22/05:00am 24.9 29.7 24.4 97 0.3 SE 7 9 4 5 1009.0 1008.9 24.2
22/04:30am 24.9 28.8 24.2 96 0.5 ESE 11 13 6 7 1008.9 1008.8 24.2
22/04:00am 24.9 29.7 24.4 97 0.3 SE 7 11 4 6 1009.1 1009.0 24.2
22/03:30am 25.1 29.6 24.6 97 0.3 E 9 11 5 6 1009.0 1008.9 24.2
22/03:00am 25.0 30.0 24.5 97 0.3 SSE 6 9 3 5 1009.4 1009.3 24.2
22/02:30am 25.1 30.0 24.6 97 0.3 SE 7 9 4 5 1009.4 1009.3 24.2
22/02:00am 25.1 29.6 24.6 97 0.3 ESE 9 9 5 5 1009.4 1009.3 24.2
22/01:30am 25.1 29.6 24.6 97 0.3 SE 9 11 5 6 1009.5 1009.4 24.2
22/01:00am 25.0 29.4 24.5 97 0.3 SE 9 13 5 7 1009.7 1009.6 24.2
22/12:30am 25.0 29.8 24.5 97 0.3 SE 7 11 4 6 1010.1 1010.0 24.2
22/12:00am 25.1 30.0 24.6 97 0.3 E 7 11 4 6 1010.3 1010.2 24.2
 
Date/Time
EST
Temp
°C
App
Temp
°C
Dew
Point
°C
Rel
Hum
%
Delta-T
°C
Wind Press
QNH
hPa
Press
MSL
hPa
Rain since
9am
mm
Dir  Spd
km/h
Gust
km/h
Spd
kts
Gust
kts
21/11:30pm 25.2 30.3 24.7 97 0.3 E 6 7 3 4 1010.5 1010.4 24.2
21/11:00pm 25.0 31.1 24.5 97 0.3 CALM 0 0 0 0 1010.7 1010.6 24.2
21/10:30pm 25.1 29.9 24.4 96 0.5 SE 7 9 4 5 1010.6 1010.5 24.2
21/10:00pm 25.2 29.6 24.5 96 0.5 ESE 9 11 5 6 1010.6 1010.5 24.2
21/09:30pm 25.3 29.7 24.4 95 0.6 E 9 13 5 7 1010.8 1010.7 24.2
21/09:00pm 25.3 30.1 24.4 95 0.6 E 7 11 4 6 1010.8 1010.7 24.2
21/08:30pm 25.1 29.0 24.2 95 0.6 E 11 13 6 7 1010.7 1010.6 24.2
21/08:00pm 25.1 29.1 24.4 96 0.5 E 11 13 6 7 1010.3 1010.2 24.2
21/07:30pm 25.1 29.1 24.4 96 0.5 ENE 11 17 6 9 1009.8 1009.7 24.2
21/07:00pm 25.0 28.2 24.3 96 0.5 E 15 20 8 11 1009.3 1009.2 24.2
21/06:30pm 24.9 27.1 24.2 96 0.5 ESE 20 26 11 14 1009.0 1008.9 24.2
21/06:14pm 24.9 27.6 24.2 96 0.5 ESE 17 22 9 12 1009.1 1009.0 24.0
21/06:00pm 25.0 30.0 24.5 97 0.3 ESE 6 15 3 8 1009.2 1009.1 23.0
21/05:51pm 25.0 30.0 24.5 97 0.3 SE 6 11 3 6 1009.3 1009.2 21.8
21/05:49pm 24.9 29.8 24.4 97 0.3 ESE 6 11 3 6 1009.3 1009.2 21.6
21/05:30pm 24.8 28.2 24.1 96 0.5 ESE 13 22 7 12 1009.3 1009.2 20.0
21/05:29pm 24.8 27.9 24.1 96 0.5 ESE 15 22 8 12 1009.3 1009.2 19.6
21/05:00pm 25.0 26.6 24.5 97 0.3 E 24 32 13 17 1009.1 1009.0 16.4
21/04:30pm 25.7 27.5 24.8 95 0.6 NE 24 35 13 19 1008.2 1008.1 7.2
21/04:16pm 26.5 28.0 24.9 91 1.1 NE 26 35 14 19 1008.1 1008.0 2.6
21/04:00pm 30.1 35.6 25.6 77 3.2 SE 7 13 4 7 1007.6 1007.5 0.2
21/03:30pm 30.5 35.2 25.6 75 3.5 SSE 11 17 6 9 1007.0 1006.9 0.2
21/03:00pm 30.7 34.5 25.3 73 3.8 SE 15 22 8 12 1007.1 1007.0 0.2
21/02:30pm 30.4 33.8 25.2 74 3.7 SE 17 24 9 13 1007.3 1007.2 0.2
21/02:00pm 30.3 35.2 25.8 77 3.2 ESE 11 15 6 8 1007.8 1007.7 0.2
21/01:30pm 29.5 35.7 26.7 85 2.0 NE 7 19 4 10 1008.3 1008.2 0.2
21/01:00pm 30.6 35.5 25.9 76 3.3 ESE 11 17 6 9 1008.6 1008.5 0.0
21/12:30pm 30.1 34.0 24.9 73 3.7 SE 13 20 7 11 1009.0 1008.9 0.0
21/12:00pm 29.3 32.7 25.3 79 2.8 ESE 17 24 9 13 1009.4 1009.3 0.0
21/11:30am 28.8 31.8 25.2 81 2.5 SE 19 24 10 13 1009.8 1009.7 0.0
21/11:00am 29.3 32.6 25.7 81 2.6 ESE 19 30 10 16 1010.0 1009.9 0.0
21/10:30am 28.5 31.7 25.5 84 2.1 SE 19 24 10 13 1010.3 1010.2 0.0
21/10:00am 27.3 30.7 24.7 86 1.8 SE 15 22 8 12 1010.8 1010.7 0.0
21/09:54am 27.2 30.7 24.8 87 1.7 SE 15 20 8 11 1010.8 1010.7 0.0
21/09:30am 26.7 30.4 24.5 88 1.5 SE 13 19 7 10 1011.1 1011.0 0.0
21/09:00am 26.3 29.9 24.3 89 1.4 SE 13 19 7 10 1011.1 1011.0 41.6
21/08:30am 26.0 30.6 24.8 93 0.8 SE 9 13 5 7 1010.8 1010.7 41.6
21/08:22am 25.7 29.8 24.5 93 0.8 SE 11 15 6 8 1010.7 1010.6 41.6
21/08:00am 25.5 29.6 24.5 94 0.7 SSE 11 17 6 9 1010.4 1010.3 41.6
21/07:30am 25.0 29.8 24.5 97 0.3 SE 7 11 4 6 1010.3 1010.2 41.6
21/07:00am 24.1 29.8 23.8 98 0.2 CALM 0 0 0 0 1010.1 1010.0 41.6
21/06:30am 24.2 28.9 23.9 98 0.2 S 6 7 3 4 1009.6 1009.5 41.6
21/06:00am 24.3 28.8 24.0 98 0.2 ESE 7 11 4 6 1009.1 1009.0 41.6
21/05:30am 24.3 29.3 23.8 97 0.3 S 4 7 2 4 1009.3 1009.2 41.6
21/05:00am 24.5 28.6 24.0 97 0.3 SE 9 11 5 6 1008.6 1008.5 41.6
21/04:30am 24.6 28.0 24.1 97 0.3 ESE 13 17 7 9 1008.1 1008.0 41.6
21/04:00am 24.7 27.8 24.2 97 0.3 ESE 15 19 8 10 1008.1 1008.0 41.6
21/03:30am 24.6 28.0 24.1 97 0.3 ESE 13 17 7 9 1008.1 1008.0 41.6
21/03:00am 24.6 28.4 24.1 97 0.3 E 11 13 6 7 1008.3 1008.2 41.6
21/02:30am 24.6 29.2 24.1 97 0.3 SE 7 9 4 5 1008.8 1008.7 41.6
21/02:00am 24.7 29.3 24.2 97 0.3 ESE 7 9 4 5 1009.0 1008.9 41.6
21/01:30am 24.8 29.5 24.3 97 0.3 ESE 7 9 4 5 1009.4 1009.3 41.6
21/01:00am 24.9 28.8 24.2 96 0.5 ESE 11 13 6 7 1009.6 1009.5 41.6
21/12:30am 24.9 28.5 24.4 97 0.3 ESE 13 17 7 9 1009.7 1009.6 41.6
21/12:00am 24.9 29.3 24.4 97 0.3 ESE 9 13 5 7 1009.8 1009.7 41.6
 
Date/Time
EST
Temp
°C
App
Temp
°C
Dew
Point
°C
Rel
Hum
%
Delta-T
°C
Wind Press
QNH
hPa
Press
MSL
hPa
Rain since
9am
mm
Dir  Spd
km/h
Gust
km/h
Spd
kts
Gust
kts
20/11:30pm 24.9 29.7 24.4 97 0.3 SE 7 13 4 7 1010.0 1009.9 41.6
20/11:00pm 24.9 29.3 24.4 97 0.3 ESE 9 13 5 7 1010.2 1010.1 41.6
20/10:30pm 25.0 29.8 24.5 97 0.3 E 7 9 4 5 1010.5 1010.4 41.6
20/10:00pm 25.0 31.1 24.5 97 0.3 CALM 0 0 0 0 1010.6 1010.5 41.6
20/09:30pm 25.0 30.8 24.5 97 0.3 SE 2 7 1 4 1010.6 1010.5 41.6
20/09:00pm 25.0 29.3 24.3 96 0.5 ESE 9 11 5 6 1010.1 1010.0 41.6
20/08:30pm 25.0 28.9 24.3 96 0.5 ESE 11 13 6 7 1010.1 1010.0 41.4
20/08:00pm 25.0 28.9 24.3 96 0.5 ESE 11 13 6 7 1010.1 1010.0 41.4
20/07:30pm 24.8 28.0 24.3 97 0.3 SE 15 17 8 9 1010.0 1009.9 41.4
20/07:00pm 24.7 27.4 24.2 97 0.3 ESE 17 24 9 13 1009.8 1009.7 41.4
20/06:30pm 24.8 28.0 24.3 97 0.3 SE 15 20 8 11 1009.9 1009.8 41.4
20/06:00pm 24.7 29.0 24.2 97 0.3 SE 9 13 5 7 1009.9 1009.8 41.2
20/05:30pm 24.7 28.6 24.2 97 0.3 ESE 11 15 6 8 1009.5 1009.4 41.0
20/05:00pm 24.6 28.4 24.1 97 0.3 ESE 11 15 6 8 1008.7 1008.6 39.8
20/04:30pm 24.7 28.2 24.2 97 0.3 E 13 20 7 11 1008.2 1008.1 38.4
20/04:00pm 25.0 28.7 24.5 97 0.3 E 13 15 7 8 1008.2 1008.1 36.8
20/03:57pm 25.1 28.8 24.6 97 0.3 E 13 15 7 8 1008.2 1008.1 36.6
20/03:30pm 25.1 28.1 24.6 97 0.3 ENE 17 24 9 13 1008.5 1008.4 33.2
20/03:11pm 25.0 28.3 24.5 97 0.3 NNW 15 24 8 13 1008.8 1008.7 21.4
20/03:02pm 25.0 29.1 24.5 97 0.3 NNW 11 15 6 8 1008.1 1008.0 19.8
20/03:00pm 24.9 29.3 24.4 97 0.3 NNW 9 13 5 7 1008.1 1008.0 19.8
20/02:31pm 24.8 27.4 23.9 95 0.6 N 17 24 9 13 1008.5 1008.4 12.8
20/02:30pm 24.8 27.0 23.9 95 0.6 N 19 24 10 13 1008.5 1008.4 12.2
20/02:24pm 25.2 27.1 23.4 90 1.2 N 19 28 10 15 1008.6 1008.5 4.8
20/02:17pm 26.4 30.5 24.6 90 1.2 NNW 11 28 6 15 1008.1 1008.0 2.2
20/02:00pm 27.4 34.5 26.0 92 1.0 CALM 0 0 0 0 1008.2 1008.1 2.0
20/01:55pm 27.2 33.8 25.8 92 1.0 NNW 2 7 1 4 1008.0 1007.9 2.0
20/01:32pm 27.6 31.6 26.2 92 1.0 NNE 17 28 9 15 1008.3 1008.2 0.8
20/01:30pm 27.7 31.5 25.9 90 1.3 NE 17 28 9 15 1008.3 1008.2 0.4
20/01:00pm 30.7 34.7 26.2 77 3.2 ESE 17 24 9 13 1007.9 1007.8 0.0
20/12:30pm 30.3 32.8 25.4 75 3.5 E 22 30 12 16 1008.5 1008.4 0.0
20/12:00pm 30.2 34.1 26.1 79 2.9 ESE 17 24 9 13 1008.9 1008.8 0.0
20/11:30am 30.4 33.3 25.9 77 3.2 E 22 32 12 17 1009.6 1009.5 0.0
20/11:00am 29.5 32.0 25.3 78 3.0 E 22 32 12 17 1010.1 1010.0 0.0
20/10:30am 29.3 33.2 26.1 83 2.3 E 17 22 9 12 1010.4 1010.3 0.0
20/10:00am 28.2 30.6 25.2 84 2.1 E 22 30 12 16 1010.4 1010.3 0.0
20/09:30am 28.1 31.0 25.1 84 2.1 E 19 30 10 16 1010.2 1010.1 0.0
20/09:18am 27.9 30.8 25.1 85 2.0 ESE 19 26 10 14 1010.2 1010.1 0.0
20/09:08am 27.8 30.8 25.2 86 1.8 ESE 19 26 10 14 1010.2 1010.1 0.0
20/09:00am 27.9 31.3 25.3 86 1.8 ESE 17 24 9 13 1010.2 1010.1 5.8

Other formats

Comma delimited format used in spreadsheet applications
http://www.bom.gov.au/fwo/IDQ60801/IDQ60801.94170.axf

JavaScript Object Notation format (JSON) in row-major order
http://www.bom.gov.au/fwo/IDQ60801/IDQ60801.94170.json

Data quality

Most of these data are generated automatically and are frequently updated. Quality checks on data are not normally performed. It is possible for incorrect values to appear. Refer to information at About Latest Weather Observations and please check the disclaimer before using these data.